Time;durP1;ratioP1;P1;durP2;ratioP2;P2;SDS_P1;SDS_P2;PMS_P1;PMS_P2;Temp;Humidity;BMP_temperature;BMP_pressure;BME280_temperature;BME280_humidity;BME280_pressure;Samples;Min_cycle;Max_cycle;Signal;HPM_P1;HPM_P2
2022/05/09 00:01:13;;;;;;;;;;;21.70;53.50;;;;;;5075574;28;19924;-50
2022/05/09 00:03:42;;;;;;;;;;;21.70;53.60;;;;;;5075885;28;19929;-49
2022/05/09 00:06:10;;;;;;;;;;;21.70;53.60;;;;;;5075538;28;19931;-52
2022/05/09 00:08:37;;;;;;;;;;;21.70;53.60;;;;;;5075702;28;19924;-53
2022/05/09 00:11:04;;;;;;;;;;;21.70;53.60;;;;;;5075360;28;19925;-48
2022/05/09 00:13:31;;;;;;;;;;;21.70;53.60;;;;;;5075208;28;19977;-49
2022/05/09 00:15:58;;;;;;;;;;;21.70;53.60;;;;;;5075424;28;19931;-48
2022/05/09 00:18:26;;;;;;;;;;;21.70;53.60;;;;;;5075494;28;20300;-52
2022/05/09 00:20:53;;;;;;;;;;;21.70;53.60;;;;;;5075215;28;20050;-50
2022/05/09 00:23:20;;;;;;;;;;;21.70;53.60;;;;;;5074860;28;20046;-48
2022/05/09 00:25:47;;;;;;;;;;;21.70;53.60;;;;;;5074994;28;20388;-49
2022/05/09 00:28:14;;;;;;;;;;;21.70;53.60;;;;;;5075245;28;19924;-49
2022/05/09 00:30:41;;;;;;;;;;;21.70;53.60;;;;;;5074770;28;20396;-48
2022/05/09 00:33:09;;;;;;;;;;;21.70;53.60;;;;;;5074554;28;20008;-48
2022/05/09 00:35:37;;;;;;;;;;;21.70;53.60;;;;;;5074541;28;19925;-52
2022/05/09 00:38:05;;;;;;;;;;;21.70;53.60;;;;;;5074994;28;19924;-47
2022/05/09 00:40:32;;;;;;;;;;;21.70;53.60;;;;;;5074785;28;19931;-50
2022/05/09 00:43:00;;;;;;;;;;;21.70;53.60;;;;;;5089393;28;19924;-48
2022/05/09 00:45:27;;;;;;;;;;;21.70;53.60;;;;;;5074618;28;19925;-48
2022/05/09 00:47:54;;;;;;;;;;;21.70;53.60;;;;;;5074816;28;20261;-52
2022/05/09 00:50:24;;;;;;;;;;;21.70;53.60;;;;;;5078806;28;19924;-52
2022/05/09 00:52:59;;;;;;;;;;;21.70;53.60;;;;;;5094388;28;19924;-53
2022/05/09 00:55:40;;;;;;;;;;;21.70;53.60;;;;;;5082963;28;19924;-49
2022/05/09 00:58:07;;;;;;;;;;;21.70;53.60;;;;;;5089868;28;19929;-52
2022/05/09 01:00:34;;;;;;;;;;;21.70;53.60;;;;;;5074153;28;19924;-50
2022/05/09 01:03:06;;;;;;;;;;;21.70;53.60;;;;;;5074378;28;19925;-55
2022/05/09 01:05:33;;;;;;;;;;;21.70;53.60;;;;;;5074742;28;19931;-56
2022/05/09 01:08:00;;;;;;;;;;;21.70;53.60;;;;;;5074656;28;19924;-54
2022/05/09 01:10:34;;;;;;;;;;;21.70;53.60;;;;;;5074452;28;19924;-54
2022/05/09 01:13:02;;;;;;;;;;;21.70;53.60;;;;;;5074016;28;19931;-47
2022/05/09 01:15:30;;;;;;;;;;;21.70;53.60;;;;;;5074480;28;19924;-50
2022/05/09 01:17:58;;;;;;;;;;;21.70;53.60;;;;;;5074319;28;19932;-50
2022/05/09 01:20:25;;;;;;;;;;;21.70;53.60;;;;;;5074101;28;19970;-49
2022/05/09 01:22:57;;;;;;;;;;;21.70;53.60;;;;;;5073515;28;19974;-52
2022/05/09 01:25:24;;;;;;;;;;;21.70;53.60;;;;;;5074315;28;19925;-51
2022/05/09 01:27:51;;;;;;;;;;;21.70;53.60;;;;;;5073909;28;20380;-53
2022/05/09 01:30:19;;;;;;;;;;;21.70;53.60;;;;;;5073896;28;20318;-51
2022/05/09 01:32:57;;;;;;;;;;;21.70;53.60;;;;;;5073489;28;19928;-50
2022/05/09 01:35:30;;;;;;;;;;;21.70;53.60;;;;;;5073967;28;19928;-47
2022/05/09 01:38:29;;;;;;;;;;;21.70;53.60;;;;;;5073598;28;20384;-49
2022/05/09 01:40:56;;;;;;;;;;;21.70;53.60;;;;;;5036307;28;19932;-51
2022/05/09 01:43:35;;;;;;;;;;;21.70;53.50;;;;;;5071395;28;20339;-48
2022/05/09 01:46:03;;;;;;;;;;;21.70;53.60;;;;;;5068910;28;19928;-48
2022/05/09 01:51:16;;;;;;;;;;;21.70;53.50;;;;;;5070958;28;19928;-49
2022/05/09 01:53:51;;;;;;;;;;;21.70;53.60;;;;;;5070955;28;20379;-49
2022/05/09 01:56:22;;;;;;;;;;;21.70;53.60;;;;;;5055597;28;19928;-49
2022/05/09 01:58:49;;;;;;;;;;;21.70;53.50;;;;;;5050849;28;19924;-49
2022/05/09 02:01:17;;;;;;;;;;;21.70;53.60;;;;;;5051553;28;20317;-48
2022/05/09 02:03:47;;;;;;;;;;;21.70;53.60;;;;;;5051011;28;19925;-47
2022/05/09 02:06:15;;;;;;;;;;;21.70;53.60;;;;;;5050712;28;19959;-48
2022/05/09 02:08:42;;;;;;;;;;;21.70;53.60;;;;;;5050869;28;19935;-49
2022/05/09 02:11:09;;;;;;;;;;;21.70;53.60;;;;;;5050929;28;19925;-52
2022/05/09 02:13:36;;;;;;;;;;;21.70;53.50;;;;;;5051199;28;19925;-48
2022/05/09 02:16:03;;;;;;;;;;;21.70;53.60;;;;;;5057237;28;19929;-50
2022/05/09 02:18:32;;;;;;;;;;;21.70;53.60;;;;;;5072864;28;19924;-51
2022/05/09 02:20:58;;;;;;;;;;;21.70;53.60;;;;;;5072862;28;19925;-48
2022/05/09 02:23:25;;;;;;;;;;;21.70;53.50;;;;;;5072741;28;19924;-48
2022/05/09 02:25:53;;;;;;;;;;;21.70;53.60;;;;;;5073127;28;19966;-50
2022/05/09 02:28:23;;;;;;;;;;;21.70;53.60;;;;;;5073413;28;20347;-49
2022/05/09 02:30:50;;;;;;;;;;;21.70;53.50;;;;;;5073212;28;19932;-48
2022/05/09 02:33:17;;;;;;;;;;;21.70;53.60;;;;;;5072798;28;19925;-47
2022/05/09 02:35:44;;;;;;;;;;;21.70;53.60;;;;;;5066459;28;19933;-48
2022/05/09 02:38:11;;;;;;;;;;;21.70;53.50;;;;;;5053081;28;20396;-50
2022/05/09 02:40:40;;;;;;;;;;;21.70;53.60;;;;;;5052550;28;19929;-49
2022/05/09 02:43:07;;;;;;;;;;;21.70;53.60;;;;;;5089795;28;19931;-50
2022/05/09 02:45:34;;;;;;;;;;;21.70;53.60;;;;;;5093348;28;19924;-48
2022/05/09 02:48:02;;;;;;;;;;;21.70;53.60;;;;;;5093007;28;20379;-49
2022/05/09 02:50:29;;;;;;;;;;;21.70;53.60;;;;;;5092613;28;19931;-49
2022/05/09 02:52:56;;;;;;;;;;;21.70;53.60;;;;;;5093127;28;19932;-49
2022/05/09 02:55:23;;;;;;;;;;;21.70;53.60;;;;;;5086974;28;19924;-49
2022/05/09 02:57:50;;;;;;;;;;;21.70;53.60;;;;;;5096079;28;19924;-47
2022/05/09 03:00:22;;;;;;;;;;;21.70;53.60;;;;;;5097191;28;19924;-48
2022/05/09 03:05:36;;;;;;;;;;;21.70;53.60;;;;;;5089582;28;19925;-48
2022/05/09 03:08:03;;;;;;;;;;;21.70;53.60;;;;;;5076493;28;19932;-48
2022/05/09 03:10:31;;;;;;;;;;;21.70;53.60;;;;;;5076405;28;19925;-48
2022/05/09 03:13:01;;;;;;;;;;;21.70;53.60;;;;;;5076637;28;19928;-50
2022/05/09 03:15:29;;;;;;;;;;;21.70;53.60;;;;;;5076372;28;19929;-48
2022/05/09 03:17:56;;;;;;;;;;;21.70;53.60;;;;;;5076459;28;19932;-46
2022/05/09 03:20:24;;;;;;;;;;;21.70;53.60;;;;;;5076424;28;19928;-48
2022/05/09 03:22:51;;;;;;;;;;;21.70;53.60;;;;;;5075673;28;19974;-48
2022/05/09 03:25:18;;;;;;;;;;;21.70;54.10;;;;;;5076492;28;19933;-48
2022/05/09 03:27:45;;;;;;;;;;;21.70;53.60;;;;;;5076024;28;19932;-48
2022/05/09 03:30:14;;;;;;;;;;;21.70;53.60;;;;;;5076136;28;20410;-48
2022/05/09 03:32:41;;;;;;;;;;;21.70;53.60;;;;;;5075654;28;19924;-48
2022/05/09 03:35:09;;;;;;;;;;;21.70;53.60;;;;;;5076018;28;19928;-48
2022/05/09 03:37:36;;;;;;;;;;;21.70;53.60;;;;;;5076311;28;19924;-50
2022/05/09 03:40:04;;;;;;;;;;;21.70;53.60;;;;;;5089355;28;19924;-48
2022/05/09 03:42:32;;;;;;;;;;;21.60;53.50;;;;;;5096216;28;19971;-47
2022/05/09 03:44:59;;;;;;;;;;;21.70;53.60;;;;;;5096008;28;19924;-47
2022/05/09 03:47:26;;;;;;;;;;;21.70;53.60;;;;;;5096017;28;20018;-49
2022/05/09 03:49:55;;;;;;;;;;;21.60;53.50;;;;;;5095931;28;19924;-47
2022/05/09 03:52:23;;;;;;;;;;;21.80;53.70;;;;;;5075931;28;19932;-52
2022/05/09 03:54:50;;;;;;;;;;;21.70;53.60;;;;;;5075577;28;19925;-47
2022/05/09 03:57:17;;;;;;;;;;;21.70;53.60;;;;;;5075731;28;19924;-50
2022/05/09 03:59:44;;;;;;;;;;;21.70;53.50;;;;;;5075870;28;20343;-47
2022/05/09 04:02:11;;;;;;;;;;;21.70;53.60;;;;;;5066107;28;20327;-48
2022/05/09 04:04:38;;;;;;;;;;;21.70;53.60;;;;;;5055260;28;20024;-48
2022/05/09 04:07:05;;;;;;;;;;;21.70;53.50;;;;;;5055755;28;19925;-51
2022/05/09 04:09:32;;;;;;;;;;;21.70;53.50;;;;;;5065403;28;19924;-48
2022/05/09 04:11:59;;;;;;;;;;;21.70;53.50;;;;;;5073982;28;19928;-48
2022/05/09 04:17:14;;;;;;;;;;;21.70;53.50;;;;;;5075498;28;19931;-53
2022/05/09 04:19:41;;;;;;;;;;;21.70;53.50;;;;;;5074815;28;19931;-49
2022/05/09 04:22:08;;;;;;;;;;;21.70;53.50;;;;;;5075130;28;19931;-52
2022/05/09 04:24:35;;;;;;;;;;;21.70;53.50;;;;;;5075019;28;19929;-52
2022/05/09 04:27:02;;;;;;;;;;;21.70;53.40;;;;;;5075366;28;19954;-54
2022/05/09 04:29:29;;;;;;;;;;;21.70;53.40;;;;;;5075095;28;20004;-54
2022/05/09 04:31:56;;;;;;;;;;;21.80;53.50;;;;;;5074699;28;19924;-55
2022/05/09 04:34:23;;;;;;;;;;;21.80;53.40;;;;;;5074825;28;19924;-50
2022/05/09 04:36:50;;;;;;;;;;;21.80;53.50;;;;;;5090578;28;20388;-51
2022/05/09 04:39:20;;;;;;;;;;;21.80;53.40;;;;;;5094962;28;19924;-51
2022/05/09 04:41:47;;;;;;;;;;;21.80;53.40;;;;;;5095190;28;20273;-49
2022/05/09 04:44:14;;;;;;;;;;;21.80;53.30;;;;;;5095110;28;19931;-49
2022/05/09 04:46:42;;;;;;;;;;;21.80;53.30;;;;;;5095333;28;20299;-51
2022/05/09 04:49:09;;;;;;;;;;;21.80;53.30;;;;;;5095119;28;19950;-54
2022/05/09 04:51:36;;;;;;;;;;;21.70;53.20;;;;;;5080665;28;19924;-51
2022/05/09 04:54:03;;;;;;;;;;;21.80;53.20;;;;;;5074508;28;19925;-50
2022/05/09 04:56:30;;;;;;;;;;;21.80;53.20;;;;;;5074593;28;20348;-47
2022/05/09 04:58:57;;;;;;;;;;;21.90;53.20;;;;;;5060386;28;19991;-52
2022/05/09 05:01:24;;;;;;;;;;;21.80;53.10;;;;;;5054442;28;19924;-53
2022/05/09 05:03:51;;;;;;;;;;;21.90;53.20;;;;;;5054223;28;19937;-54
2022/05/09 05:06:18;;;;;;;;;;;21.90;53.20;;;;;;5054662;28;19925;-54
2022/05/09 05:08:45;;;;;;;;;;;21.90;53.20;;;;;;5068881;28;20053;-50
2022/05/09 05:11:12;;;;;;;;;;;21.90;53.10;;;;;;5074400;28;19931;-51
2022/05/09 05:13:39;;;;;;;;;;;21.90;53.70;;;;;;5074449;28;19933;-47
2022/05/09 05:16:06;;;;;;;;;;;21.90;53.10;;;;;;5074525;28;20348;-48
2022/05/09 05:18:34;;;;;;;;;;;21.90;53.10;;;;;;5073625;28;19925;-47
2022/05/09 05:21:09;;;;;;;;;;;21.90;53.10;;;;;;5073959;28;19928;-52
2022/05/09 05:23:37;;;;;;;;;;;21.90;53.10;;;;;;5073540;28;20371;-50
2022/05/09 05:26:04;;;;;;;;;;;21.90;53.10;;;;;;5073845;28;19932;-48
2022/05/09 05:28:34;;;;;;;;;;;21.90;53.10;;;;;;5073628;28;19932;-48
2022/05/09 05:31:18;;;;;;;;;;;22.00;53.20;;;;;;5074215;28;19924;-51
2022/05/09 05:33:46;;;;;;;;;;;22.00;53.10;;;;;;5054086;28;19925;-48
2022/05/09 05:36:14;;;;;;;;;;;21.90;53.00;;;;;;5053808;28;19928;-54
2022/05/09 05:38:43;;;;;;;;;;;21.90;53.00;;;;;;5053539;28;20016;-55
2022/05/09 05:41:10;;;;;;;;;;;22.00;53.10;;;;;;5060807;28;19924;-51
2022/05/09 05:43:37;;;;;;;;;;;22.00;53.10;;;;;;5092174;28;19928;-49
2022/05/09 05:46:04;;;;;;;;;;;22.00;53.00;;;;;;5093606;28;19924;-52
2022/05/09 05:48:31;;;;;;;;;;;22.00;53.00;;;;;;5093501;28;19931;-48
2022/05/09 05:50:58;;;;;;;;;;;22.00;52.90;;;;;;5085057;28;19924;-53
2022/05/09 05:53:25;;;;;;;;;;;22.00;52.90;;;;;;5073361;28;19925;-54
2022/05/09 05:55:52;;;;;;;;;;;22.10;52.90;;;;;;5053943;28;19948;-50
2022/05/09 05:58:19;;;;;;;;;;;22.10;52.80;;;;;;5053118;28;20380;-50
2022/05/09 06:00:46;;;;;;;;;;;22.10;52.80;;;;;;5053414;28;19928;-47
2022/05/09 06:03:14;;;;;;;;;;;22.20;52.90;;;;;;5053546;28;19924;-52
2022/05/09 06:05:41;;;;;;;;;;;22.10;52.80;;;;;;5073272;28;20340;-48
2022/05/09 06:08:08;;;;;;;;;;;22.10;52.70;;;;;;5073277;28;19986;-54
2022/05/09 06:10:35;;;;;;;;;;;22.10;52.60;;;;;;5072655;28;19931;-47
2022/05/09 06:13:09;;;;;;;;;;;22.10;52.60;;;;;;5073541;28;19928;-53
2022/05/09 06:15:36;;;;;;;;;;;22.10;52.60;;;;;;5073304;28;20291;-52
2022/05/09 06:18:04;;;;;;;;;;;22.20;52.70;;;;;;5073529;28;19924;-50
2022/05/09 06:20:34;;;;;;;;;;;22.20;52.60;;;;;;5072865;28;19924;-49
2022/05/09 06:23:03;;;;;;;;;;;22.20;52.60;;;;;;5072708;28;19932;-54
2022/05/09 06:25:31;;;;;;;;;;;22.20;52.50;;;;;;5073179;28;20019;-47
2022/05/09 06:27:58;;;;;;;;;;;22.30;52.50;;;;;;5079381;28;19928;-48
2022/05/09 06:30:26;;;;;;;;;;;22.20;52.40;;;;;;5093027;28;20383;-51
2022/05/09 06:32:53;;;;;;;;;;;22.20;52.30;;;;;;5091690;28;19931;-49
2022/05/09 06:35:23;;;;;;;;;;;22.30;52.40;;;;;;5091586;28;19969;-46
2022/05/09 06:37:54;;;;;;;;;;;22.30;52.30;;;;;;5093018;28;20316;-47
2022/05/09 06:40:21;;;;;;;;;;;22.30;52.30;;;;;;5092994;28;19928;-46
2022/05/09 06:42:51;;;;;;;;;;;22.30;52.30;;;;;;5093133;28;20078;-47
2022/05/09 06:45:18;;;;;;;;;;;22.30;52.20;;;;;;5093036;28;19924;-48
2022/05/09 06:47:46;;;;;;;;;;;22.40;52.20;;;;;;5092644;28;19931;-47
2022/05/09 06:50:14;;;;;;;;;;;22.40;52.20;;;;;;5088799;28;19931;-49
2022/05/09 06:52:42;;;;;;;;;;;22.40;52.20;;;;;;5072700;28;20257;-48
2022/05/09 06:55:28;;;;;;;;;;;22.40;52.10;;;;;;5072643;28;19928;-48
2022/05/09 06:57:55;;;;;;;;;;;22.40;52.10;;;;;;5072835;28;19932;-48
2022/05/09 07:00:24;;;;;;;;;;;22.40;52.60;;;;;;5072266;28;20264;-47
2022/05/09 07:02:51;;;;;;;;;;;22.50;52.00;;;;;;5072575;28;19963;-47
2022/05/09 07:05:20;;;;;;;;;;;22.50;52.00;;;;;;5073175;28;20018;-46
2022/05/09 07:07:48;;;;;;;;;;;22.50;51.90;;;;;;5072894;28;20350;-47
2022/05/09 07:10:16;;;;;;;;;;;22.60;51.90;;;;;;5071774;28;19979;-48
2022/05/09 07:12:48;;;;;;;;;;;22.50;51.90;;;;;;5072618;28;19932;-47
2022/05/09 07:15:19;;;;;;;;;;;22.50;51.80;;;;;;5072125;28;19951;-50
2022/05/09 07:17:53;;;;;;;;;;;22.50;51.70;;;;;;5072442;28;19931;-47
2022/05/09 07:20:22;;;;;;;;;;;22.60;51.70;;;;;;5072070;28;19970;-49
2022/05/09 07:22:53;;;;;;;;;;;22.60;51.70;;;;;;5072885;28;19928;-48
2022/05/09 07:25:20;;;;;;;;;;;22.60;51.70;;;;;;5087880;28;19924;-49
2022/05/09 07:27:47;;;;;;;;;;;22.70;51.70;;;;;;5092375;28;19924;-48
2022/05/09 07:30:16;;;;;;;;;;;22.70;51.70;;;;;;5092390;28;19973;-48
2022/05/09 07:32:44;;;;;;;;;;;22.70;51.60;;;;;;5092822;28;19924;-47
2022/05/09 07:35:13;;;;;;;;;;;22.70;51.60;;;;;;5092631;28;20272;-48
2022/05/09 07:37:44;;;;;;;;;;;22.60;51.50;;;;;;5092407;28;20387;-49
2022/05/09 07:40:12;;;;;;;;;;;22.70;51.60;;;;;;5092499;28;19924;-49
2022/05/09 07:42:40;;;;;;;;;;;22.60;51.50;;;;;;5092129;28;19924;-53
2022/05/09 07:45:08;;;;;;;;;;;22.60;51.50;;;;;;5071208;28;19947;-50
2022/05/09 07:47:36;;;;;;;;;;;22.70;51.60;;;;;;5054005;28;19956;-49
2022/05/09 07:50:03;;;;;;;;;;;22.60;51.50;;;;;;5072117;28;20392;-47
2022/05/09 07:52:31;;;;;;;;;;;22.60;51.60;;;;;;5075312;28;19924;-52
2022/05/09 07:54:59;;;;;;;;;;;22.70;51.70;;;;;;5082391;28;19935;-52
2022/05/09 07:57:28;;;;;;;;;;;22.60;51.70;;;;;;5081381;28;19925;-50
2022/05/09 07:59:58;;;;;;;;;;;22.60;51.70;;;;;;5075504;28;19929;-50
2022/05/09 08:02:26;;;;;;;;;;;22.60;51.80;;;;;;5074489;28;19938;-49
2022/05/09 08:04:53;;;;;;;;;;;22.50;51.70;;;;;;5075193;28;19924;-49
2022/05/09 08:07:21;;;;;;;;;;;22.50;51.80;;;;;;5074646;28;19924;-54
2022/05/09 08:09:48;;;;;;;;;;;22.60;52.00;;;;;;5074566;28;19925;-56
2022/05/09 08:12:16;;;;;;;;;;;22.60;52.00;;;;;;5074483;28;19974;-52
2022/05/09 08:14:43;;;;;;;;;;;22.50;52.00;;;;;;5074855;28;19925;-49
2022/05/09 08:17:11;;;;;;;;;;;22.50;52.10;;;;;;5074568;28;19924;-50
2022/05/09 08:19:39;;;;;;;;;;;22.50;52.10;;;;;;5074833;28;20316;-49
2022/05/09 08:22:07;;;;;;;;;;;22.50;52.20;;;;;;5092155;28;19946;-49
2022/05/09 08:24:42;;;;;;;;;;;22.50;52.20;;;;;;5094977;28;20007;-49
2022/05/09 08:27:09;;;;;;;;;;;22.50;52.30;;;;;;5095153;28;19935;-51
2022/05/09 08:29:36;;;;;;;;;;;22.50;52.30;;;;;;5095096;28;19963;-50
2022/05/09 08:32:03;;;;;;;;;;;22.50;52.30;;;;;;5095018;28;20006;-52
2022/05/09 08:34:30;;;;;;;;;;;22.50;52.30;;;;;;5095129;28;19928;-52
2022/05/09 08:36:57;;;;;;;;;;;22.50;52.30;;;;;;5095257;28;19930;-51
2022/05/09 08:39:26;;;;;;;;;;;22.50;52.30;;;;;;5095445;28;20330;-48
2022/05/09 08:41:57;;;;;;;;;;;22.50;52.30;;;;;;5094617;28;19931;-48
2022/05/09 08:44:37;;;;;;;;;;;22.60;52.40;;;;;;5076699;28;19924;-49
2022/05/09 08:47:07;;;;;;;;;;;22.60;52.30;;;;;;5075120;28;19929;-51
2022/05/09 08:49:53;;;;;;;;;;;22.60;52.30;;;;;;5074878;28;19932;-51
2022/05/09 08:52:29;;;;;;;;;;;22.60;52.30;;;;;;5074608;28;20023;-49
2022/05/09 08:54:59;;;;;;;;;;;22.60;52.30;;;;;;5078743;28;19935;-51
2022/05/09 08:57:31;;;;;;;;;;;22.60;52.20;;;;;;5078879;28;19928;-51
2022/05/09 09:00:01;;;;;;;;;;;22.60;52.20;;;;;;5074673;28;19924;-51
2022/05/09 09:02:39;;;;;;;;;;;22.70;52.30;;;;;;5074096;28;19931;-54
2022/05/09 09:05:09;;;;;;;;;;;22.60;52.30;;;;;;5074983;28;20006;-51
2022/05/09 09:07:37;;;;;;;;;;;22.60;52.20;;;;;;5073476;28;19925;-50
2022/05/09 09:10:17;;;;;;;;;;;22.70;52.30;;;;;;5074362;28;19931;-53
2022/05/09 09:12:59;;;;;;;;;;;22.70;52.30;;;;;;5074312;28;20391;-48
2022/05/09 09:15:38;;;;;;;;;;;22.70;52.30;;;;;;5074056;28;19924;-51
2022/05/09 09:18:05;;;;;;;;;;;22.70;52.30;;;;;;5091524;28;19924;-53
2022/05/09 09:20:38;;;;;;;;;;;22.70;52.30;;;;;;5094448;28;20015;-50
2022/05/09 09:23:05;;;;;;;;;;;22.70;52.30;;;;;;5094165;28;19924;-49
2022/05/09 09:25:35;;;;;;;;;;;22.70;52.40;;;;;;5094059;28;19924;-51
2022/05/09 09:28:14;;;;;;;;;;;22.70;52.40;;;;;;5094176;28;19924;-50
2022/05/09 09:30:41;;;;;;;;;;;22.60;52.30;;;;;;5094007;28;19924;-49
2022/05/09 09:33:09;;;;;;;;;;;22.70;52.40;;;;;;5094107;28;19931;-52
2022/05/09 09:35:43;;;;;;;;;;;22.60;52.30;;;;;;5094189;28;19927;-49
2022/05/09 09:38:22;;;;;;;;;;;22.70;52.50;;;;;;5092956;28;20436;-49
2022/05/09 09:40:50;;;;;;;;;;;22.60;52.40;;;;;;5075307;28;19929;-48
2022/05/09 09:43:19;;;;;;;;;;;22.70;52.50;;;;;;5093820;28;19924;-53
2022/05/09 09:45:52;;;;;;;;;;;22.70;52.50;;;;;;5093693;28;19932;-48
2022/05/09 09:48:22;;;;;;;;;;;22.60;52.50;;;;;;5094084;28;19946;-49
2022/05/09 09:51:00;;;;;;;;;;;22.60;52.50;;;;;;5086436;28;19929;-53
2022/05/09 09:53:31;;;;;;;;;;;22.70;52.60;;;;;;5073380;28;19925;-48
2022/05/09 09:56:04;;;;;;;;;;;22.60;52.50;;;;;;5072994;28;19925;-53
2022/05/09 09:58:32;;;;;;;;;;;22.70;52.60;;;;;;5073484;28;19924;-54
2022/05/09 10:01:01;;;;;;;;;;;22.60;52.50;;;;;;5073270;28;19924;-49
2022/05/09 10:03:30;;;;;;;;;;;22.70;52.60;;;;;;5073185;28;19931;-52
2022/05/09 10:05:58;;;;;;;;;;;22.70;52.60;;;;;;5072769;28;20328;-50
2022/05/09 10:08:25;;;;;;;;;;;22.60;52.50;;;;;;5068615;28;19931;-47
2022/05/09 10:11:00;;;;;;;;;;;22.60;52.50;;;;;;5072852;28;20397;-48
2022/05/09 10:13:34;;;;;;;;;;;22.70;52.60;;;;;;5083516;28;19924;-51
2022/05/09 10:16:02;;;;;;;;;;;22.70;52.70;;;;;;5092947;28;19931;-48
2022/05/09 10:18:34;;;;;;;;;;;22.60;52.60;;;;;;5092897;28;19934;-51
2022/05/09 10:24:47;;;;;;;;;;;22.70;52.70;;;;;;5093017;28;19973;-52
2022/05/09 10:26:55;;;;;;;;;;;22.70;52.70;;;;;;5093085;28;19938;-50
2022/05/09 10:29:26;;;;;;;;;;;22.70;52.70;;;;;;5092505;28;21332;-49
2022/05/09 10:31:56;;;;;;;;;;;22.60;52.60;;;;;;5091738;28;19969;-52
2022/05/09 10:34:31;;;;;;;;;;;22.70;52.70;;;;;;5093275;28;19924;-55
2022/05/09 10:37:03;;;;;;;;;;;22.70;52.70;;;;;;5074580;28;20292;-49
2022/05/09 10:39:34;;;;;;;;;;;22.70;52.70;;;;;;5072778;28;20367;-49
2022/05/09 10:42:04;;;;;;;;;;;22.60;52.60;;;;;;5083493;28;19931;-50
2022/05/09 10:44:47;;;;;;;;;;;22.70;53.30;;;;;;5092580;28;19925;-49
2022/05/09 10:47:20;;;;;;;;;;;22.70;52.70;;;;;;5084689;28;19925;-54
2022/05/09 10:50:11;;;;;;;;;;;22.70;52.70;;;;;;5072184;28;20440;-57
2022/05/09 10:52:44;;;;;;;;;;;22.70;52.70;;;;;;5050036;28;19931;-55
2022/05/09 10:55:33;;;;;;;;;;;22.70;52.70;;;;;;5056553;28;20435;-52
2022/05/09 10:58:12;;;;;;;;;;;22.70;52.70;;;;;;5070587;28;19928;-54
2022/05/09 11:00:43;;;;;;;;;;;22.70;52.70;;;;;;5070273;28;19925;-52
2022/05/09 11:03:18;;;;;;;;;;;22.70;52.70;;;;;;5054565;28;19928;-55
2022/05/09 11:06:04;;;;;;;;;;;22.70;52.70;;;;;;5050634;28;19979;-51
2022/05/09 11:08:37;;;;;;;;;;;22.70;52.70;;;;;;5049803;28;20339;-53
2022/05/09 11:11:24;;;;;;;;;;;22.70;52.70;;;;;;5069631;28;19924;-52
2022/05/09 11:14:10;;;;;;;;;;;22.70;52.70;;;;;;5070325;28;20149;-51
2022/05/09 11:16:45;;;;;;;;;;;22.70;52.70;;;;;;5070368;28;19924;-55
2022/05/09 11:19:20;;;;;;;;;;;22.70;52.70;;;;;;5073634;28;19924;-52
2022/05/09 11:22:06;;;;;;;;;;;22.70;52.70;;;;;;5073728;28;19928;-49
2022/05/09 11:24:48;;;;;;;;;;;22.70;52.70;;;;;;5073880;28;20400;-52
2022/05/09 11:27:26;;;;;;;;;;;22.70;52.70;;;;;;5074232;28;20299;-49
2022/05/09 11:30:21;;;;;;;;;;;22.70;52.70;;;;;;5075325;28;19932;-50
2022/05/09 11:32:56;;;;;;;;;;;22.70;52.70;;;;;;5061185;28;19925;-49
2022/05/09 11:35:22;;;;;;;;;;;22.70;52.70;;;;;;5055812;28;20438;-49
2022/05/09 11:37:52;;;;;;;;;;;22.70;52.70;;;;;;5056041;28;19994;-49
2022/05/09 11:40:26;;;;;;;;;;;22.70;52.70;;;;;;5055962;28;19925;-53
2022/05/09 11:45:45;;;;;;;;;;;22.70;52.70;;;;;;5055827;28;20435;-51
2022/05/09 11:48:15;;;;;;;;;;;22.70;52.70;;;;;;5056364;28;19932;-49
2022/05/09 11:50:51;;;;;;;;;;;22.70;52.70;;;;;;5035998;28;19933;-48
2022/05/09 11:53:22;;;;;;;;;;;22.70;52.70;;;;;;5051300;28;19939;-51
2022/05/09 11:55:49;;;;;;;;;;;22.70;52.70;;;;;;5035772;28;19925;-51
2022/05/09 11:58:16;;;;;;;;;;;22.70;52.70;;;;;;5042089;28;19978;-47
2022/05/09 12:00:47;;;;;;;;;;;22.70;52.70;;;;;;5055725;28;19975;-49
2022/05/09 12:03:34;;;;;;;;;;;22.70;52.70;;;;;;5055402;28;20301;-48
2022/05/09 12:06:02;;;;;;;;;;;22.70;52.70;;;;;;5063976;28;19932;-50
2022/05/09 12:08:46;;;;;;;;;;;22.70;52.70;;;;;;5068512;28;19924;-50
2022/05/09 12:11:17;;;;;;;;;;;22.70;52.60;;;;;;5055881;28;20020;-52
2022/05/09 12:13:44;;;;;;;;;;;22.70;52.70;;;;;;5055628;28;19925;-48
2022/05/09 12:16:31;;;;;;;;;;;22.70;52.70;;;;;;5055599;28;19974;-50
2022/05/09 12:18:59;;;;;;;;;;;22.80;52.70;;;;;;5054887;28;20388;-49
2022/05/09 12:21:46;;;;;;;;;;;22.70;52.60;;;;;;5055465;28;20007;-49
2022/05/09 12:24:18;;;;;;;;;;;22.70;52.60;;;;;;5071875;28;19924;-51
2022/05/09 12:26:47;;;;;;;;;;;22.70;52.60;;;;;;5074537;28;19936;-47
2022/05/09 12:29:15;;;;;;;;;;;22.70;52.60;;;;;;5074454;28;20438;-47
2022/05/09 12:31:45;;;;;;;;;;;22.70;52.60;;;;;;5074884;28;19935;-52
2022/05/09 12:34:13;;;;;;;;;;;22.70;52.60;;;;;;5075020;28;19974;-48
2022/05/09 12:36:41;;;;;;;;;;;22.70;52.60;;;;;;5075146;28;20277;-51
2022/05/09 12:39:12;;;;;;;;;;;22.70;52.50;;;;;;5074714;28;19978;-54
2022/05/09 12:41:45;;;;;;;;;;;22.70;52.60;;;;;;5082221;28;19924;-46
2022/05/09 12:44:15;;;;;;;;;;;22.70;52.50;;;;;;5094881;28;19931;-48
2022/05/09 12:46:51;;;;;;;;;;;22.70;52.50;;;;;;5076682;28;19982;-50
2022/05/09 12:49:21;;;;;;;;;;;22.70;52.50;;;;;;5075104;28;19925;-47
2022/05/09 12:51:49;;;;;;;;;;;22.70;52.50;;;;;;5074796;28;20338;-50
2022/05/09 12:54:18;;;;;;;;;;;22.70;52.50;;;;;;5074254;28;19924;-49
2022/05/09 12:56:47;;;;;;;;;;;22.70;52.50;;;;;;5074972;28;20326;-53
2022/05/09 12:59:16;;;;;;;;;;;22.70;52.50;;;;;;5074589;28;19928;-51
2022/05/09 13:01:50;;;;;;;;;;;22.70;52.50;;;;;;5078362;28;19924;-47
2022/05/09 13:04:44;;;;;;;;;;;22.80;52.50;;;;;;5094193;28;20003;-48
2022/05/09 13:07:12;;;;;;;;;;;22.80;52.50;;;;;;5094707;28;19970;-47
2022/05/09 13:09:47;;;;;;;;;;;22.70;52.40;;;;;;5077472;28;19928;-48
2022/05/09 13:12:23;;;;;;;;;;;22.70;52.40;;;;;;5074234;28;20501;-52
2022/05/09 13:14:58;;;;;;;;;;;22.70;52.40;;;;;;5074502;28;19929;-47
2022/05/09 13:17:31;;;;;;;;;;;22.80;52.50;;;;;;5073938;28;19971;-48
2022/05/09 13:19:59;;;;;;;;;;;22.70;52.40;;;;;;5073674;28;20338;-48
2022/05/09 13:22:32;;;;;;;;;;;22.80;52.50;;;;;;5073820;28;20376;-54
2022/05/09 13:25:04;;;;;;;;;;;22.70;52.40;;;;;;5073827;28;19924;-49
2022/05/09 13:27:32;;;;;;;;;;;22.80;52.50;;;;;;5074248;28;19932;-47
2022/05/09 13:30:04;;;;;;;;;;;22.70;52.40;;;;;;5073739;28;19924;-47
2022/05/09 13:32:35;;;;;;;;;;;22.80;52.50;;;;;;5073772;28;19931;-47
2022/05/09 13:35:13;;;;;;;;;;;22.70;52.40;;;;;;5074116;28;19929;-51
2022/05/09 13:37:41;;;;;;;;;;;22.70;52.40;;;;;;5073651;28;20402;-48
2022/05/09 13:40:10;;;;;;;;;;;22.70;52.40;;;;;;5073636;28;19939;-47
2022/05/09 13:42:44;;;;;;;;;;;22.80;52.50;;;;;;5071760;28;19932;-49
2022/05/09 13:45:23;;;;;;;;;;;22.70;52.40;;;;;;5073742;28;19928;-47
2022/05/09 13:47:58;;;;;;;;;;;22.70;52.40;;;;;;5073828;28;20284;-49
2022/05/09 13:50:29;;;;;;;;;;;22.70;52.30;;;;;;5073622;28;19924;-51
2022/05/09 13:53:01;;;;;;;;;;;22.80;52.50;;;;;;5073550;28;19970;-51
2022/05/09 13:55:36;;;;;;;;;;;22.80;52.50;;;;;;5073373;28;19932;-50
2022/05/09 13:58:04;;;;;;;;;;;22.70;52.30;;;;;;5080525;28;20757;-51
2022/05/09 14:00:42;;;;;;;;;;;22.70;52.30;;;;;;5093548;28;20384;-47
2022/05/09 14:03:16;;;;;;;;;;;22.70;52.30;;;;;;5093654;28;20027;-50
2022/05/09 14:05:44;;;;;;;;;;;22.80;52.40;;;;;;5093236;28;19959;-49
2022/05/09 14:08:11;;;;;;;;;;;22.80;52.40;;;;;;5089367;28;19936;-52
2022/05/09 14:10:43;;;;;;;;;;;22.70;52.30;;;;;;5053024;28;19928;-52
2022/05/09 14:13:23;;;;;;;;;;;22.70;52.30;;;;;;5053392;28;19975;-50
2022/05/09 14:16:01;;;;;;;;;;;22.70;52.30;;;;;;5053331;28;20277;-54
2022/05/09 14:18:31;;;;;;;;;;;22.70;52.30;;;;;;5053555;28;19924;-54
2022/05/09 14:21:00;;;;;;;;;;;22.70;52.30;;;;;;5062710;28;19924;-48
2022/05/09 14:23:27;;;;;;;;;;;22.70;52.30;;;;;;5072814;28;19939;-50
2022/05/09 14:31:42;;;;;;;;;;;22.80;52.40;;;;;;5072663;28;20398;-46
2022/05/09 14:34:30;;;;;;;;;;;22.80;52.30;;;;;;5073006;28;19998;-50
2022/05/09 14:37:30;;;;;;;;;;;22.80;52.30;;;;;;5073048;28;19925;-51
2022/05/09 14:39:58;;;;;;;;;;;22.70;52.30;;;;;;5050676;28;20270;-51
2022/05/09 14:42:25;;;;;;;;;;;22.80;52.30;;;;;;5050253;28;19925;-52
2022/05/09 14:45:10;;;;;;;;;;;22.70;52.30;;;;;;5050768;28;19925;-53
2022/05/09 14:47:42;;;;;;;;;;;22.70;52.30;;;;;;5050369;28;20331;-49
2022/05/09 14:50:10;;;;;;;;;;;22.80;52.30;;;;;;5050654;28;19932;-54
2022/05/09 14:52:40;;;;;;;;;;;22.70;52.30;;;;;;5051050;28;20332;-55
2022/05/09 14:57:59;;;;;;;;;;;22.70;52.30;;;;;;5074745;28;19931;-49